Pagrindinis puslapis
METAR-TAF:

METAR-TAF

Oro uostai :

Seldovia, Aliaska, Jungtinės Amerikos Valstijos

platuma: 59-27N, ilguma: 151-42W, Aukštis: 9 m

Dabartinis oras

Ataskaita buvo paskelbta 49 minutes, ne 19:53 UTC
Ramus vėjas
Temperatūra 3°C
Drėgmė 87%
Slėgis 1017 hPa
Matomumas: 16.1 km
Apsiniaukę ne aukštis 5000 ft

METAR: PASO 281953Z AUTO 00000KT 10SM OVC050 03/01 A3002 RMK AO2 SLP165 T00280011 TSNO

Laikas: 12:42 (20:42 UTC)


TAF: trūkstamas

Orai ataskaitas ir orų prognozės (METAR, TAF).

turimą stotys yra geltonos ir raudonos taškus žemėlapyje.

Perkelti pele per norėdami pamatyti stoties vardą.

Tada spustelėkite, norėdami matyti oro stebėjimo ir prognozės.

Norėdami pakeisti žemėlapį: spustelėkite ant žalios mygtukų su juodo kryžiaus žemyn,; žalią mygtuką su brūkšneliu, jei norite nutolinti; arba žalių rodyklių gretimoms žemėlapius.


METAR-TAF: